createdAt,value
2023-03-17T00:00:53.112Z,8.30
2023-03-17T00:05:07.357Z,7.90
2023-03-17T00:09:03.299Z,9.60
2023-03-17T00:12:56.647Z,7.80
2023-03-17T00:17:02.298Z,7.30
2023-03-17T00:20:54.916Z,8.00
2023-03-17T00:44:08.358Z,11.50
2023-03-17T00:48:00.756Z,13.20
2023-03-17T01:15:08.609Z,9.80
2023-03-17T01:19:00.658Z,9.90
2023-03-17T01:22:53.660Z,9.40
2023-03-17T01:38:23.038Z,6.70
2023-03-17T01:42:15.530Z,7.60
2023-03-17T01:46:06.249Z,14.80
2023-03-17T01:50:01.687Z,20.40
2023-03-17T01:53:46.312Z,14.40
2023-03-17T02:13:25.378Z,6.50
2023-03-17T02:17:18.788Z,6.00
2023-03-17T02:21:21.910Z,13.80
2023-03-17T02:25:14.138Z,17.40
2023-03-17T02:40:55.380Z,15.30
2023-03-17T02:44:48.329Z,27.40
2023-03-17T02:48:41.178Z,11.70
2023-03-17T02:52:36.031Z,7.60
2023-03-17T03:15:54.344Z,15.60
2023-03-17T03:19:47.071Z,17.70
2023-03-17T03:23:37.851Z,17.70
2023-03-17T03:42:35.786Z,13.10
2023-03-17T03:46:28.297Z,20.90
2023-03-17T03:50:21.277Z,13.90
2023-03-17T03:54:13.905Z,13.20
2023-03-17T04:13:50.370Z,13.40
2023-03-17T04:33:23.893Z,12.00
2023-03-17T04:37:22.756Z,15.00
2023-03-17T04:45:09.585Z,11.10
2023-03-17T04:49:02.449Z,12.10
2023-03-17T05:08:41.832Z,22.80
2023-03-17T05:12:33.968Z,8.80
2023-03-17T05:16:29.837Z,7.10
2023-03-17T05:32:19.917Z,11.50
2023-03-17T05:36:11.768Z,13.00
2023-03-17T05:40:04.269Z,13.10
2023-03-17T05:51:57.599Z,22.20
2023-03-17T05:55:49.665Z,18.60
2023-03-17T05:59:36.592Z,25.50
2023-03-17T06:03:29.989Z,21.20
2023-03-17T06:19:14.732Z,17.90
2023-03-17T06:23:09.026Z,19.20
2023-03-17T06:27:02.137Z,23.80
2023-03-17T06:42:53.681Z,22.70
2023-03-17T06:46:45.727Z,13.60
2023-03-17T07:02:35.678Z,10.90
2023-03-17T07:06:28.493Z,12.50
2023-03-17T07:10:20.440Z,19.10
2023-03-17T07:26:06.361Z,12.40
2023-03-17T07:29:59.962Z,12.10
2023-03-17T07:33:43.517Z,11.40
2023-03-17T07:37:28.297Z,12.10
2023-03-17T08:00:23.244Z,9.90
2023-03-17T08:04:15.653Z,8.60
2023-03-17T08:16:11.567Z,7.80
2023-03-17T08:20:04.559Z,5.70
2023-03-17T08:23:58.035Z,6.40
2023-03-17T08:54:28.339Z,3.90
2023-03-17T08:58:21.117Z,4.00
2023-03-17T09:14:08.842Z,4.20
2023-03-17T09:18:01.909Z,4.20
2023-03-17T09:21:54.062Z,4.40
2023-03-17T09:25:45.857Z,3.90
2023-03-17T09:41:42.812Z,3.70
2023-03-17T09:45:48.578Z,3.50
2023-03-17T09:49:43.251Z,3.00
2023-03-17T09:53:34.833Z,3.40
2023-03-17T10:05:31.641Z,3.40
2023-03-17T10:09:29.064Z,3.20
2023-03-17T10:13:26.303Z,3.30
2023-03-17T10:17:19.465Z,3.00
2023-03-17T10:58:52.944Z,2.40
2023-03-17T11:02:38.801Z,2.80
2023-03-17T11:06:33.962Z,2.30
2023-03-17T11:10:26.695Z,2.50
2023-03-17T11:14:19.052Z,2.30
2023-03-17T11:18:17.204Z,2.40
2023-03-17T11:22:12.859Z,2.30
2023-03-17T11:26:20.055Z,2.30
2023-03-17T11:30:24.186Z,2.20
2023-03-17T11:33:36.737Z,1.90
2023-03-17T11:36:39.001Z,2.20
2023-03-17T11:40:27.330Z,2.00
2023-03-17T11:43:51.782Z,2.60
2023-03-17T11:46:52.178Z,1.80
2023-03-17T11:49:51.563Z,2.10
2023-03-17T11:53:23.237Z,2.00
2023-03-17T12:18:36.025Z,2.10
2023-03-17T12:21:56.126Z,2.20
2023-03-17T12:24:56.878Z,2.10
2023-03-17T12:27:44.518Z,2.30
2023-03-17T12:31:06.015Z,1.50
2023-03-17T12:34:42.261Z,1.90
2023-03-17T12:37:23.529Z,2.40
2023-03-17T12:40:11.292Z,2.10
2023-03-17T12:43:34.253Z,1.90
2023-03-17T12:46:18.021Z,1.90
2023-03-17T12:49:27.441Z,1.60
2023-03-17T12:52:46.586Z,1.70
2023-03-17T12:55:58.376Z,1.70
2023-03-17T12:58:48.424Z,2.00
2023-03-17T13:02:00.034Z,1.90
2023-03-17T13:04:58.165Z,1.50
2023-03-17T13:08:06.451Z,1.70
2023-03-17T13:11:14.414Z,2.10
2023-03-17T13:14:38.432Z,1.70
2023-03-17T13:17:37.313Z,1.30
2023-03-17T13:20:39.722Z,1.50
2023-03-17T13:23:55.258Z,1.60
2023-03-17T13:27:09.464Z,1.40
2023-03-17T13:29:55.732Z,1.90
2023-03-17T13:33:20.123Z,1.70
2023-03-17T13:36:43.886Z,1.70
2023-03-17T13:40:00.814Z,1.70
2023-03-17T13:43:15.430Z,1.50
2023-03-17T13:46:40.958Z,1.60
2023-03-17T13:49:44.199Z,1.30
2023-03-17T13:53:02.211Z,1.60
2023-03-17T13:56:40.533Z,1.70
2023-03-17T14:00:02.310Z,1.60
2023-03-17T14:02:52.739Z,2.20
2023-03-17T14:06:03.692Z,1.70
2023-03-17T14:09:20.975Z,1.60
2023-03-17T14:12:07.651Z,2.10
2023-03-17T14:15:50.143Z,2.00
2023-03-17T14:18:56.950Z,2.10
2023-03-17T14:21:52.353Z,48.20
2023-03-17T14:24:54.914Z,15.20
2023-03-17T14:27:42.304Z,2.30
2023-03-17T14:34:01.322Z,1.80
2023-03-17T14:36:48.640Z,2.40
2023-03-17T14:39:56.804Z,2.40
2023-03-17T14:46:34.729Z,1.80
2023-03-17T14:49:57.767Z,4.20
2023-03-17T14:52:43.435Z,2.00
2023-03-17T14:55:30.995Z,1.80
2023-03-17T14:58:52.177Z,2.30
2023-03-17T15:02:09.494Z,2.30
2023-03-17T15:05:37.553Z,8.70
2023-03-17T15:09:11.135Z,2.40
2023-03-17T15:12:46.642Z,2.30
2023-03-17T15:16:08.657Z,2.00
2023-03-17T15:19:45.076Z,2.10
2023-03-17T15:27:23.168Z,1.70
2023-03-17T15:31:15.865Z,2.00
2023-03-17T15:35:01.347Z,1.20
2023-03-17T15:50:41.997Z,2.10
2023-03-17T15:54:27.054Z,2.00
2023-03-17T15:58:20.532Z,2.30
2023-03-17T16:02:12.379Z,2.20
2023-03-17T16:06:14.788Z,3.10
2023-03-17T16:29:22.864Z,25.20
2023-03-17T16:33:03.821Z,21.30
2023-03-17T16:36:42.830Z,17.50
2023-03-17T16:40:35.103Z,14.40
2023-03-17T17:00:05.864Z,25.30
2023-03-17T17:03:50.753Z,36.60
2023-03-17T17:07:42.978Z,48.50
2023-03-17T17:11:35.253Z,19.50
2023-03-17T17:31:01.658Z,8.50
2023-03-17T17:34:56.647Z,14.90
2023-03-17T17:39:20.256Z,23.70
2023-03-17T17:43:12.040Z,14.00
2023-03-17T17:46:58.677Z,23.20
2023-03-17T17:50:51.280Z,20.00
2023-03-17T17:54:45.335Z,27.10
2023-03-17T17:58:39.379Z,35.90
2023-03-17T18:18:15.679Z,31.80
2023-03-17T18:22:08.709Z,30.40
2023-03-17T18:25:54.729Z,34.20
2023-03-17T18:29:32.691Z,28.80
2023-03-17T18:55:58.246Z,10.80
2023-03-17T18:59:51.621Z,18.20
2023-03-17T19:19:31.547Z,26.50
2023-03-17T19:23:23.748Z,35.70
2023-03-17T19:27:18.539Z,46.10
2023-03-17T19:31:12.546Z,49.70
2023-03-17T19:50:46.802Z,16.10
2023-03-17T19:54:38.403Z,6.90
2023-03-17T19:58:30.672Z,8.80
2023-03-17T20:18:08.843Z,18.10
2023-03-17T20:22:02.780Z,27.90
2023-03-17T20:25:56.689Z,21.30
2023-03-17T20:41:50.469Z,3.90
2023-03-17T20:45:44.731Z,7.70
2023-03-17T20:49:38.325Z,30.30
2023-03-17T21:01:38.174Z,4.10
